Time;durP1;ratioP1;P1;durP2;ratioP2;P2;SDS_P1;SDS_P2;PMS_P1;PMS_P2;Temp;Humidity;BMP_temperature;BMP_pressure;BME280_temperature;BME280_humidity;BME280_pressure;Samples;Min_cycle;Max_cycle;Signal;HPM_P1;HPM_P2
2022/01/30 00:01:03;;;;;;;6.07;1.75;;;7.60;91.50;;;;;;5027472;28;20457;-81
2022/01/30 00:03:28;;;;;;;3.78;1.70;;;7.60;91.50;;;;;;5020596;28;20559;-81
2022/01/30 00:05:54;;;;;;;6.70;2.00;;;7.60;91.50;;;;;;4988501;28;20075;-81
2022/01/30 00:08:19;;;;;;;5.20;1.90;;;7.60;91.50;;;;;;5001852;28;20150;-81
2022/01/30 00:10:50;;;;;;;7.50;2.22;;;7.60;91.50;;;;;;5004623;28;20025;-81
2022/01/30 00:13:18;;;;;;;4.13;1.35;;;7.60;91.50;;;;;;5014739;28;20029;-81
2022/01/30 00:15:50;;;;;;;5.47;1.42;;;7.60;91.50;;;;;;5020066;28;20119;-81
2022/01/30 00:21:01;;;;;;;8.60;1.90;;;7.50;91.40;;;;;;5035945;28;20052;-81
2022/01/30 00:23:29;;;;;;;5.65;2.00;;;7.50;91.40;;;;;;5002209;28;20445;-82
2022/01/30 00:25:56;;;;;;;8.73;1.75;;;7.50;91.40;;;;;;5029783;28;20067;-81
2022/01/30 00:28:25;;;;;;;9.27;1.77;;;7.50;91.40;;;;;;5011567;28;20508;-81
2022/01/30 00:30:51;;;;;;;4.57;1.80;;;7.50;91.40;;;;;;5032177;28;20501;-81
2022/01/30 00:33:16;;;;;;;5.53;1.50;;;7.50;91.40;;;;;;5015237;28;20037;-82
2022/01/30 00:35:42;;;;;;;4.80;1.85;;;7.50;91.40;;;;;;5000510;28;20059;-82
2022/01/30 00:38:15;;;;;;;6.43;1.63;;;7.40;91.30;;;;;;5012916;28;20433;-81
2022/01/30 00:40:41;;;;;;;4.22;1.67;;;7.40;91.30;;;;;;5029126;28;20033;-81
2022/01/30 00:43:07;;;;;;;7.03;1.83;;;7.40;91.30;;;;;;5001174;28;20116;-81
2022/01/30 00:45:33;;;;;;;7.18;2.33;;;7.40;91.30;;;;;;5030106;28;20487;-81
2022/01/30 00:47:58;;;;;;;8.82;2.97;;;7.40;91.20;;;;;;5006854;28;20051;-81
2022/01/30 00:50:24;;;;;;;6.43;2.15;;;7.40;91.20;;;;;;5033864;28;20033;-81
2022/01/30 00:52:53;;;;;;;9.18;1.95;;;7.40;91.20;;;;;;5016213;28;20038;-81
2022/01/30 00:55:19;;;;;;;5.65;1.92;;;7.40;91.20;;;;;;4990259;28;20094;-82
2022/01/30 00:57:45;;;;;;;13.77;2.42;;;7.40;91.10;;;;;;5008281;28;20087;-81
2022/01/30 01:00:11;;;;;;;8.73;2.33;;;7.30;91.10;;;;;;4995670;28;20037;-81
2022/01/30 01:02:36;;;;;;;7.25;1.98;;;7.30;91.00;;;;;;5011811;28;20392;-81
2022/01/30 01:05:05;;;;;;;11.07;2.17;;;7.30;91.00;;;;;;5010436;28;20044;-81
2022/01/30 01:07:32;;;;;;;9.98;2.00;;;7.30;91.00;;;;;;5027779;28;20029;-81
2022/01/30 01:23:22;;;;;;;11.00;2.17;;;7.30;90.90;;;;;;5033917;28;20063;-82
2022/01/30 01:23:45;;;;;;;7.28;2.85;;;7.30;90.80;;;;;;5021607;28;20526;-81
2022/01/30 01:26:11;;;;;;;13.75;2.20;;;7.20;90.70;;;;;;5047471;28;20080;-81
2022/01/30 01:28:36;;;;;;;10.38;2.17;;;7.20;90.70;;;;;;5020383;28;20080;-81
2022/01/30 01:31:02;;;;;;;11.02;2.08;;;7.20;90.60;;;;;;5030065;28;20041;-81
2022/01/30 01:33:38;;;;;;;9.30;2.50;;;7.20;90.60;;;;;;5031217;28;20048;-81
2022/01/30 01:36:04;;;;;;;12.60;2.58;;;7.20;90.50;;;;;;5000450;28;20125;-81
2022/01/30 01:38:29;;;;;;;7.03;2.05;;;7.20;90.50;;;;;;5047607;28;20144;-81
2022/01/30 01:40:55;;;;;;;11.13;2.03;;;7.20;90.50;;;;;;4993229;28;20436;-81
2022/01/30 01:43:22;;;;;;;13.18;2.13;;;7.20;90.40;;;;;;4996369;28;20722;-81
2022/01/30 01:45:50;;;;;;;10.02;2.00;;;7.10;90.30;;;;;;5008676;28;20411;-81
2022/01/30 01:48:15;;;;;;;6.60;1.65;;;7.10;90.40;;;;;;5028116;28;20624;-81
2022/01/30 01:50:51;;;;;;;8.15;2.17;;;7.10;90.30;;;;;;5001559;28;20120;-81
2022/01/30 01:53:17;;;;;;;7.03;2.33;;;7.10;90.30;;;;;;5014842;28;20059;-81
2022/01/30 01:55:43;;;;;;;12.15;2.55;;;7.00;90.30;;;;;;5011348;28;20448;-81
2022/01/30 01:58:09;;;;;;;14.20;2.38;;;7.00;90.20;;;;;;5007697;28;20124;-81
2022/01/30 02:00:35;;;;;;;7.18;1.67;;;7.00;90.20;;;;;;5023371;28;20191;-81
2022/01/30 02:03:01;;;;;;;9.80;1.80;;;7.00;90.10;;;;;;5028104;28;20387;-81
2022/01/30 02:05:27;;;;;;;7.53;2.05;;;7.00;90.10;;;;;;5031101;28;20072;-81
2022/01/30 02:11:06;;;;;;;16.95;1.83;;;6.90;90.00;;;;;;5008680;28;20443;-81
2022/01/30 02:13:28;;;;;;;7.88;2.00;;;6.90;90.00;;;;;;4997226;28;20036;-82
2022/01/30 02:24:09;;;;;;;9.63;1.98;;;6.90;89.70;;;;;;5033058;28;20040;-82
2022/01/30 02:26:43;;;;;;;8.55;2.35;;;6.90;89.60;;;;;;5004287;28;20047;-81
2022/01/30 02:29:10;;;;;;;9.68;1.80;;;6.90;89.60;;;;;;5027876;28;20029;-82
2022/01/30 02:31:38;;;;;;;7.00;1.70;;;6.90;89.50;;;;;;4999915;28;20115;-81
2022/01/30 02:34:04;;;;;;;9.07;1.83;;;6.90;89.40;;;;;;5016319;28;20047;-81
2022/01/30 02:36:29;;;;;;;8.68;1.98;;;6.80;89.40;;;;;;5020800;28;20037;-81
2022/01/30 02:38:58;;;;;;;7.20;2.50;;;6.80;89.20;;;;;;5035013;28;20045;-81
2022/01/30 02:41:23;;;;;;;10.40;1.88;;;6.80;89.20;;;;;;5000865;28;20037;-81
2022/01/30 02:44:05;;;;;;;7.97;1.48;;;6.80;89.30;;;;;;5045642;28;20121;-82
2022/01/30 02:46:34;;;;;;;9.13;2.45;;;6.70;89.20;;;;;;5032830;28;20095;-82
2022/01/30 02:49:12;;;;;;;10.02;1.88;;;6.70;89.30;;;;;;5036069;28;20031;-81
2022/01/30 02:51:46;;;;;;;13.00;2.10;;;6.70;89.20;;;;;;5000975;28;20082;-81
2022/01/30 02:54:13;;;;;;;7.10;2.13;;;6.70;89.20;;;;;;4990789;28;20526;-82
2022/01/30 02:56:40;;;;;;;5.43;1.58;;;6.70;89.20;;;;;;5018054;28;20060;-81
2022/01/30 02:59:05;;;;;;;10.20;2.35;;;6.60;89.10;;;;;;5037204;28;20029;-81
2022/01/30 03:01:31;;;;;;;11.35;1.75;;;6.60;89.10;;;;;;5011723;28;20159;-81
2022/01/30 03:03:56;;;;;;;8.50;2.33;;;6.60;89.00;;;;;;5010121;28;20025;-80
2022/01/30 03:06:22;;;;;;;12.98;2.22;;;6.60;89.00;;;;;;5029668;28;20036;-80
2022/01/30 03:08:47;;;;;;;5.75;1.85;;;6.60;88.90;;;;;;5034672;28;20044;-81
2022/01/30 03:11:13;;;;;;;12.10;2.08;;;6.70;88.80;;;;;;5031015;28;20041;-81
2022/01/30 03:13:38;;;;;;;8.40;2.17;;;6.70;88.70;;;;;;5034299;28;20033;-81
2022/01/30 03:16:04;;;;;;;8.52;2.25;;;6.70;89.40;;;;;;5001674;28;20035;-81
2022/01/30 03:18:31;;;;;;;12.18;2.67;;;6.70;88.50;;;;;;5014283;28;20040;-81
2022/01/30 03:20:56;;;;;;;8.98;1.90;;;6.80;88.60;;;;;;5016427;28;20028;-81
2022/01/30 03:23:22;;;;;;;13.07;1.98;;;6.80;88.40;;;;;;5021325;28;20052;-81
2022/01/30 03:25:54;;;;;;;7.28;1.77;;;6.80;88.30;;;;;;4988839;28;20026;-81
2022/01/30 03:28:19;;;;;;;11.32;1.98;;;6.80;88.20;;;;;;5018762;28;20597;-81
2022/01/30 03:30:45;;;;;;;8.27;1.90;;;6.80;88.00;;;;;;5015037;28;20065;-81
2022/01/30 03:33:11;;;;;;;6.10;1.73;;;6.80;87.90;;;;;;5012760;28;20025;-81
2022/01/30 03:35:36;;;;;;;9.02;2.75;;;6.80;87.90;;;;;;5029962;28;20029;-80
2022/01/30 03:38:02;;;;;;;16.20;2.40;;;6.80;87.90;;;;;;5007031;28;20392;-81
2022/01/30 03:40:27;;;;;;;10.38;2.25;;;6.80;87.80;;;;;;5006431;28;20035;-81
2022/01/30 03:42:53;;;;;;;8.88;2.28;;;6.80;87.80;;;;;;5006484;28;20399;-81
2022/01/30 03:45:18;;;;;;;8.32;2.15;;;6.70;87.70;;;;;;5009021;28;20033;-81
2022/01/30 03:47:44;;;;;;;10.52;2.08;;;6.70;87.70;;;;;;5009924;28;20288;-81
2022/01/30 03:50:09;;;;;;;11.88;2.45;;;6.70;87.60;;;;;;5026052;28;20040;-81
2022/01/30 03:52:35;;;;;;;9.23;1.67;;;6.70;87.60;;;;;;5000750;28;20025;-80
2022/01/30 03:55:00;;;;;;;10.02;1.88;;;6.70;87.50;;;;;;4994582;28;20433;-81
2022/01/30 03:57:26;;;;;;;9.55;1.95;;;6.70;87.40;;;;;;5027355;28;20033;-81
2022/01/30 03:59:51;;;;;;;9.25;1.77;;;6.70;87.30;;;;;;5007525;28;20032;-81
2022/01/30 04:02:17;;;;;;;6.88;1.70;;;6.70;87.20;;;;;;5009354;28;20033;-81
2022/01/30 04:04:43;;;;;;;7.47;1.58;;;6.60;87.20;;;;;;4991023;28;20490;-81
2022/01/30 04:07:09;;;;;;;6.22;1.60;;;6.60;87.10;;;;;;5013336;28;20049;-81
2022/01/30 04:09:34;;;;;;;6.65;1.98;;;6.60;86.90;;;;;;5035460;28;20064;-81
2022/01/30 04:12:00;;;;;;;11.05;2.22;;;6.60;86.80;;;;;;5010634;28;20050;-81
2022/01/30 04:14:26;;;;;;;8.00;1.65;;;6.50;86.70;;;;;;5008768;28;20056;-81
2022/01/30 04:16:52;;;;;;;8.48;1.70;;;6.50;87.40;;;;;;5007388;28;20407;-81
2022/01/30 04:19:17;;;;;;;7.30;1.80;;;6.50;86.50;;;;;;5028743;28;20037;-81
2022/01/30 04:21:43;;;;;;;8.45;1.63;;;6.50;86.50;;;;;;5009860;28;20631;-81
2022/01/30 04:24:08;;;;;;;7.47;1.85;;;6.50;86.40;;;;;;5032249;28;20025;-81
2022/01/30 04:26:34;;;;;;;6.82;2.45;;;6.50;86.30;;;;;;5011320;28;20022;-81
2022/01/30 04:29:00;;;;;;;5.25;1.30;;;6.50;86.10;;;;;;5006916;28;20040;-81
2022/01/30 04:31:25;;;;;;;8.70;1.63;;;6.50;86.10;;;;;;5027225;28;20036;-81
2022/01/30 04:33:51;;;;;;;6.95;1.92;;;6.40;85.90;;;;;;5018756;28;20121;-81
2022/01/30 04:36:23;;;;;;;8.50;1.55;;;6.40;86.00;;;;;;4992141;28;20037;-81
2022/01/30 04:52:29;;;;;;;10.63;1.90;;;6.20;85.60;;;;;;5033017;28;20033;-81
2022/01/30 04:55:40;;;;;;;11.35;2.03;;;6.20;85.60;;;;;;5007600;28;20060;-81
2022/01/30 05:02:56;;;;;;;;;;;6.10;85.60;;;;;;5037497;28;20036;-81
2022/01/30 05:08:06;;;;;;;11.45;1.92;;;6.00;85.70;;;;;;5036643;28;20060;-81
2022/01/30 05:10:32;;;;;;;11.75;2.50;;;6.00;85.70;;;;;;5019087;28;20028;-81
2022/01/30 05:12:59;;;;;;;7.90;1.70;;;6.00;85.60;;;;;;5036778;28;20033;-81
2022/01/30 05:15:27;;;;;;;8.65;2.08;;;5.90;85.50;;;;;;5042361;28;20122;-81
2022/01/30 05:17:53;;;;;;;12.90;2.20;;;5.90;85.50;;;;;;5005597;28;20029;-81
2022/01/30 05:20:19;;;;;;;15.40;2.50;;;5.90;85.50;;;;;;5007604;28;20116;-81
2022/01/30 05:22:45;;;;;;;15.20;2.60;;;5.90;85.50;;;;;;5030499;28;20032;-81
2022/01/30 05:25:11;;;;;;;8.85;2.40;;;5.80;85.30;;;;;;5002957;28;20392;-81
2022/01/30 05:27:37;;;;;;;7.53;1.92;;;5.80;85.40;;;;;;5013695;28;20091;-81
2022/01/30 05:30:04;;;;;;;15.90;2.65;;;5.80;85.40;;;;;;5027067;28;20040;-81
2022/01/30 05:32:30;;;;;;;8.30;2.85;;;5.80;85.30;;;;;;5014339;28;20053;-81
2022/01/30 05:34:56;;;;;;;12.57;1.88;;;5.80;85.30;;;;;;5040952;28;20076;-81
2022/01/30 05:37:21;;;;;;;9.02;1.73;;;5.80;85.20;;;;;;5032970;28;20052;-81
2022/01/30 05:39:47;;;;;;;9.52;2.17;;;5.70;85.00;;;;;;4999876;28;20029;-81
2022/01/30 05:42:13;;;;;;;9.40;2.20;;;5.70;85.00;;;;;;4998644;28;20029;-81
2022/01/30 05:47:25;;;;;;;12.38;1.70;;;5.70;85.00;;;;;;5013201;28;20025;-80
2022/01/30 05:49:51;;;;;;;12.95;1.95;;;5.70;85.00;;;;;;5003720;28;20483;-81
2022/01/30 05:52:17;;;;;;;11.43;1.90;;;5.70;85.80;;;;;;5006759;28;20029;-81
2022/01/30 05:54:42;;;;;;;11.82;2.72;;;5.70;84.90;;;;;;5020996;28;20513;-81
2022/01/30 05:57:08;;;;;;;10.43;2.28;;;5.70;84.80;;;;;;5024054;28;20038;-81
2022/01/30 05:59:33;;;;;;;6.50;2.00;;;5.70;84.70;;;;;;5027587;28;20029;-81
2022/01/30 06:01:59;;;;;;;10.45;2.10;;;5.70;84.70;;;;;;4994394;28;20195;-81
2022/01/30 06:04:24;;;;;;;11.63;2.08;;;5.60;84.80;;;;;;5027144;28;20547;-80
2022/01/30 06:06:53;;;;;;;11.40;1.70;;;5.70;84.70;;;;;;5021578;28;20033;-80
2022/01/30 06:09:19;;;;;;;9.88;2.15;;;5.60;84.60;;;;;;5026105;28;20928;-81
2022/01/30 06:11:49;;;;;;;12.27;2.00;;;5.60;84.60;;;;;;5013340;28;20104;-81
2022/01/30 06:14:16;;;;;;;10.10;2.60;;;5.60;84.40;;;;;;5031965;28;20032;-81
2022/01/30 06:16:42;;;;;;;10.27;2.17;;;5.60;84.40;;;;;;5016732;28;20115;-81
2022/01/30 06:19:07;;;;;;;10.85;2.42;;;5.60;84.30;;;;;;5001061;28;20614;-81
2022/01/30 06:21:33;;;;;;;7.35;1.80;;;5.60;84.20;;;;;;5040732;28;20123;-81
2022/01/30 06:23:59;;;;;;;22.70;11.25;;;5.60;84.20;;;;;;5033784;28;20060;-81
2022/01/30 06:26:25;;;;;;;13.43;4.15;;;5.60;84.20;;;;;;5012914;28;20064;-81
2022/01/30 06:28:51;;;;;;;14.55;3.03;;;5.60;84.20;;;;;;5030295;28;20060;-81
2022/01/30 06:31:16;;;;;;;45.58;17.70;;;5.60;84.10;;;;;;5029749;28;20089;-81
2022/01/30 06:33:42;;;;;;;28.23;8.87;;;5.60;84.00;;;;;;5010649;28;20488;-81
2022/01/30 06:36:08;;;;;;;15.48;2.40;;;5.50;84.00;;;;;;5000579;28;20021;-81
2022/01/30 06:38:33;;;;;;;58.53;20.23;;;5.50;83.90;;;;;;5016724;28;20041;-81
2022/01/30 06:40:59;;;;;;;11.60;3.13;;;5.50;83.90;;;;;;4982233;28;20025;-81
2022/01/30 06:43:25;;;;;;;15.20;5.38;;;5.50;83.90;;;;;;5012158;28;20034;-81
2022/01/30 06:45:51;;;;;;;17.65;5.53;;;5.50;83.80;;;;;;5002782;28;20082;-82
2022/01/30 06:48:20;;;;;;;7.43;2.97;;;5.50;83.80;;;;;;5027949;28;20025;-82
2022/01/30 06:50:45;;;;;;;39.13;15.00;;;5.50;83.80;;;;;;4988282;28;20115;-82
2022/01/30 06:53:11;;;;;;;55.00;19.40;;;5.40;83.70;;;;;;5011451;28;21399;-82
2022/01/30 06:55:42;;;;;;;13.45;2.80;;;5.40;83.80;;;;;;4997995;28;20033;-81
2022/01/30 06:58:08;;;;;;;16.23;3.17;;;5.50;84.50;;;;;;5015766;28;20716;-81
2022/01/30 07:00:34;;;;;;;13.90;3.20;;;5.40;83.60;;;;;;4986232;28;20041;-82
2022/01/30 07:03:00;;;;;;;12.88;4.45;;;5.40;83.60;;;;;;5014676;28;20044;-81
2022/01/30 07:05:26;;;;;;;16.35;3.72;;;5.40;83.70;;;;;;5013291;28;20474;-81
2022/01/30 07:07:51;;;;;;;12.18;5.25;;;5.40;83.70;;;;;;4983009;28;20556;-82
2022/01/30 07:10:17;;;;;;;8.73;2.17;;;5.40;83.80;;;;;;4992166;28;20660;-82
2022/01/30 07:12:42;;;;;;;12.88;2.35;;;5.40;83.70;;;;;;5018588;28;20036;-82
2022/01/30 07:15:08;;;;;;;8.30;2.50;;;5.40;83.80;;;;;;5021843;28;20037;-82
2022/01/30 07:17:34;;;;;;;13.65;2.72;;;5.40;83.80;;;;;;5023795;28;20029;-82
2022/01/30 07:20:00;;;;;;;13.50;2.97;;;5.30;83.80;;;;;;4992749;28;20033;-82
2022/01/30 07:22:27;;;;;;;12.77;2.55;;;5.30;83.80;;;;;;5001182;28;20038;-82
2022/01/30 07:24:53;;;;;;;8.38;2.17;;;5.30;83.70;;;;;;5023364;28;20034;-82
2022/01/30 07:27:19;;;;;;;6.15;2.60;;;5.30;83.70;;;;;;5000934;28;20472;-82
2022/01/30 07:29:44;;;;;;;14.07;2.83;;;5.30;83.80;;;;;;5008127;28;20376;-82
2022/01/30 07:32:10;;;;;;;12.85;3.38;;;5.30;83.90;;;;;;5008032;28;20086;-81
2022/01/30 07:34:36;;;;;;;9.63;2.85;;;5.30;83.80;;;;;;4992504;28;20045;-82
2022/01/30 07:37:01;;;;;;;12.63;2.40;;;5.30;83.70;;;;;;4988080;28;20522;-82
2022/01/30 07:39:29;;;;;;;9.48;2.38;;;5.30;83.70;;;;;;4980389;28;20060;-81
2022/01/30 07:41:55;;;;;;;14.82;3.55;;;5.30;83.70;;;;;;4991763;28;20029;-81
2022/01/30 07:44:20;;;;;;;16.48;3.88;;;5.30;83.60;;;;;;4998097;28;20518;-81
2022/01/30 07:46:46;;;;;;;8.45;2.17;;;5.30;83.60;;;;;;5016075;28;20132;-81
2022/01/30 07:49:12;;;;;;;11.25;2.78;;;5.40;83.60;;;;;;5002190;28;20108;-82
2022/01/30 07:51:37;;;;;;;8.27;3.40;;;5.30;83.60;;;;;;5016498;28;20033;-82
2022/01/30 07:54:03;;;;;;;12.52;3.38;;;5.40;83.70;;;;;;4996170;28;20041;-81
2022/01/30 07:56:28;;;;;;;14.48;3.97;;;5.40;83.70;;;;;;5016509;28;20587;-82
2022/01/30 07:58:54;;;;;;;21.67;5.70;;;5.40;83.60;;;;;;5017935;28;20021;-81
2022/01/30 08:01:19;;;;;;;11.18;2.80;;;5.40;83.70;;;;;;4991287;28;20018;-82
2022/01/30 08:03:45;;;;;;;12.40;3.65;;;5.40;83.50;;;;;;5021695;28;20079;-82
2022/01/30 08:06:10;;;;;;;6.57;2.47;;;5.50;83.60;;;;;;4998739;28;20053;-82
2022/01/30 08:08:36;;;;;;;11.95;2.00;;;5.50;83.40;;;;;;4993529;28;20034;-82
2022/01/30 08:11:01;;;;;;;10.32;2.10;;;5.50;83.40;;;;;;4984428;28;20414;-82
2022/01/30 08:13:27;;;;;;;9.50;2.47;;;5.50;83.40;;;;;;5001675;28;20100;-82
2022/01/30 08:15:53;;;;;;;8.65;3.03;;;5.50;83.50;;;;;;4980189;28;20044;-82
2022/01/30 08:18:18;;;;;;;13.93;7.25;;;5.50;83.70;;;;;;4986563;28;20029;-81
2022/01/30 08:20:44;;;;;;;11.02;2.97;;;5.50;83.70;;;;;;4966918;28;20038;-82
2022/01/30 08:23:15;;;;;;;9.30;3.47;;;5.60;83.80;;;;;;5025879;28;20126;-82
2022/01/30 08:25:42;;;;;;;9.98;2.47;;;5.60;83.80;;;;;;4984840;28;20029;-81
2022/01/30 08:28:08;;;;;;;21.20;10.68;;;5.70;83.80;;;;;;4994497;28;20044;-82
2022/01/30 08:30:34;;;;;;;25.48;17.05;;;5.70;83.90;;;;;;4998813;28;20041;-82
2022/01/30 08:32:59;;;;;;;12.55;3.28;;;5.80;84.00;;;;;;4976407;28;20034;-84
2022/01/30 08:35:25;;;;;;;14.40;5.53;;;5.90;84.00;;;;;;4973741;28;20038;-84
2022/01/30 08:37:51;;;;;;;11.90;5.35;;;6.00;83.90;;;;;;5000863;28;20033;-81
2022/01/30 08:40:18;;;;;;;11.68;4.72;;;6.10;83.70;;;;;;4977547;28;20178;-83
2022/01/30 08:42:44;;;;;;;8.30;3.78;;;6.20;83.60;;;;;;4977004;28;20108;-83
2022/01/30 08:45:10;;;;;;;9.80;3.53;;;6.20;83.60;;;;;;4994158;28;20120;-83
2022/01/30 08:47:36;;;;;;;8.35;3.45;;;6.40;83.80;;;;;;4990034;28;20050;-81
2022/01/30 08:50:02;;;;;;;7.30;2.78;;;6.50;83.80;;;;;;5020000;28;20034;-82
2022/01/30 08:52:27;;;;;;;6.13;2.00;;;6.60;83.70;;;;;;4977523;28;20053;-81
2022/01/30 08:54:53;;;;;;;12.80;2.78;;;6.60;83.40;;;;;;4994778;28;20041;-81
2022/01/30 08:57:18;;;;;;;8.35;2.15;;;6.70;83.40;;;;;;4985444;28;20038;-81
2022/01/30 08:59:44;;;;;;;8.38;2.70;;;6.70;83.10;;;;;;5008820;28;20048;-82
2022/01/30 09:02:10;;;;;;;4.40;1.45;;;6.80;82.90;;;;;;4985212;28;20609;-82
2022/01/30 09:04:35;;;;;;;5.68;1.70;;;6.90;82.80;;;;;;4998822;28;20037;-82
2022/01/30 09:07:01;;;;;;;6.80;1.77;;;6.90;82.50;;;;;;4997264;28;20033;-82
2022/01/30 09:09:27;;;;;;;7.85;2.60;;;6.90;82.20;;;;;;5002718;28;20060;-85
2022/01/30 09:11:52;;;;;;;8.23;2.47;;;6.80;82.00;;;;;;4996923;28;20033;-83
2022/01/30 09:14:18;;;;;;;8.15;2.00;;;6.80;82.10;;;;;;4986656;28;20068;-81
2022/01/30 09:16:44;;;;;;;13.38;4.45;;;6.80;82.00;;;;;;5000534;28;20180;-81
2022/01/30 09:19:10;;;;;;;9.23;2.50;;;6.80;82.00;;;;;;5012074;28;20041;-81
2022/01/30 09:21:35;;;;;;;19.63;8.55;;;6.80;81.90;;;;;;4985990;28;20029;-81
2022/01/30 09:24:01;;;;;;;15.27;6.70;;;6.80;81.90;;;;;;4969074;28;20036;-83
2022/01/30 09:26:26;;;;;;;9.23;3.13;;;6.80;81.90;;;;;;4983893;28;20033;-83
2022/01/30 09:28:52;;;;;;;7.57;2.55;;;6.70;81.80;;;;;;4985108;28;20531;-84
2022/01/30 09:31:17;;;;;;;9.50;2.95;;;6.70;81.80;;;;;;4994217;28;20049;-82
2022/01/30 09:33:43;;;;;;;11.02;2.97;;;6.70;81.90;;;;;;4994608;28;20037;-83
2022/01/30 09:36:08;;;;;;;11.57;3.03;;;6.70;81.70;;;;;;4978508;28;20041;-81
2022/01/30 09:38:34;;;;;;;10.02;3.60;;;6.70;81.60;;;;;;5026556;28;20864;-82
2022/01/30 09:41:00;;;;;;;14.30;3.63;;;6.70;81.60;;;;;;5035188;28;20064;-85
2022/01/30 09:43:28;;;;;;;10.40;3.65;;;6.70;81.50;;;;;;5040543;28;20043;-84
2022/01/30 09:45:53;;;;;;;10.25;3.40;;;6.80;81.40;;;;;;5035647;28;20130;-82
2022/01/30 09:48:19;;;;;;;9.48;2.75;;;6.80;81.40;;;;;;5032892;28;20585;-82
2022/01/30 09:50:45;;;;;;;9.30;2.47;;;6.80;81.30;;;;;;5009050;28;20051;-84
2022/01/30 09:53:10;;;;;;;10.82;2.58;;;6.90;81.20;;;;;;5029314;28;20126;-82
2022/01/30 09:55:36;;;;;;;9.32;2.20;;;6.90;81.10;;;;;;5028992;28;20037;-82
2022/01/30 09:58:02;;;;;;;9.75;2.33;;;6.90;81.00;;;;;;5016458;28;20041;-85
2022/01/30 10:00:27;;;;;;;8.48;3.47;;;7.00;81.00;;;;;;5032735;28;20041;-82
2022/01/30 10:02:53;;;;;;;6.30;2.08;;;7.00;80.90;;;;;;5038405;28;20526;-82
2022/01/30 10:05:18;;;;;;;12.90;3.42;;;7.00;80.90;;;;;;5044944;28;20556;-82
2022/01/30 10:07:45;;;;;;;5.63;2.10;;;7.10;80.80;;;;;;5018139;28;20483;-83
2022/01/30 10:10:13;;;;;;;12.10;2.70;;;7.10;80.80;;;;;;5011838;28;20032;-83
2022/01/30 10:13:05;;;;;;;12.55;2.42;;;7.20;80.80;;;;;;5049848;28;20044;-82
2022/01/30 10:15:31;;;;;;;8.35;2.35;;;7.20;80.20;;;;;;5026731;28;20094;-83
2022/01/30 10:17:56;;;;;;;9.50;2.45;;;7.20;80.50;;;;;;5035283;28;20033;-83
2022/01/30 10:20:25;;;;;;;7.57;2.00;;;7.30;80.40;;;;;;5045573;28;20045;-84
2022/01/30 10:22:58;;;;;;;7.97;1.70;;;7.30;80.40;;;;;;5013392;28;20106;-81
2022/01/30 10:25:36;;;;;;;7.95;2.13;;;7.30;80.20;;;;;;5023143;28;20036;-81
2022/01/30 10:28:18;;;;;;;5.55;1.90;;;7.30;80.10;;;;;;5037983;28;20028;-82
2022/01/30 10:30:51;;;;;;;8.68;1.90;;;7.30;79.60;;;;;;5039745;28;20056;-82
2022/01/30 10:33:18;;;;;;;10.00;1.92;;;7.30;80.00;;;;;;5035460;28;20549;-82
2022/01/30 10:35:55;;;;;;;8.50;2.20;;;7.30;80.00;;;;;;5037361;28;20036;-82
2022/01/30 10:38:33;;;;;;;8.27;2.13;;;7.40;79.90;;;;;;5039322;28;20048;-82
2022/01/30 10:41:09;;;;;;;9.98;2.15;;;7.40;79.90;;;;;;5042687;28;20124;-81
2022/01/30 10:43:57;;;;;;;7.50;2.42;;;7.50;79.70;;;;;;5037027;28;20126;-82
2022/01/30 10:46:27;;;;;;;7.97;1.75;;;7.50;79.20;;;;;;5043146;28;20723;-82
2022/01/30 10:49:03;;;;;;;9.00;2.30;;;7.60;79.60;;;;;;5033630;28;20046;-82
2022/01/30 10:51:30;;;;;;;11.00;2.25;;;7.60;79.30;;;;;;5035696;28;20511;-83
2022/01/30 10:53:57;;;;;;;14.68;2.28;;;7.60;79.20;;;;;;5046367;28;20033;-83
2022/01/30 10:56:27;;;;;;;8.20;2.13;;;7.60;79.00;;;;;;5014482;28;20037;-83
2022/01/30 10:59:09;;;;;;;7.82;2.00;;;7.60;78.80;;;;;;5009604;28;20032;-82
2022/01/30 11:01:35;;;;;;;12.63;2.53;;;7.60;78.50;;;;;;5036140;28;20044;-84
2022/01/30 11:04:01;;;;;;;6.82;1.95;;;7.60;78.80;;;;;;5016429;28;20410;-82
2022/01/30 11:06:29;;;;;;;9.95;2.10;;;7.60;78.70;;;;;;5047350;28;20033;-83
2022/01/30 11:09:04;;;;;;;11.88;2.20;;;7.60;78.40;;;;;;5026832;28;20029;-84
2022/01/30 11:11:47;;;;;;;13.75;2.90;;;7.60;78.00;;;;;;5022597;28;20586;-83
2022/01/30 11:14:18;;;;;;;12.40;2.72;;;7.60;78.30;;;;;;5024470;28;20060;-82
2022/01/30 11:19:25;;;;;;;8.02;2.58;;;7.60;78.30;;;;;;5042023;28;20538;-83
2022/01/30 11:21:57;;;;;;;10.55;2.47;;;7.60;78.40;;;;;;5021572;28;20042;-83
2022/01/30 11:24:24;;;;;;;11.63;2.42;;;7.60;78.30;;;;;;5022713;28;20036;-83
2022/01/30 11:26:49;;;;;;;9.63;2.50;;;7.60;78.10;;;;;;5034308;28;20033;-82
2022/01/30 11:29:16;;;;;;;11.90;2.45;;;7.60;77.90;;;;;;5027613;28;20028;-84
2022/01/30 11:31:42;;;;;;;18.95;5.38;;;7.60;77.90;;;;;;5016089;28;20091;-82
2022/01/30 11:34:07;;;;;;;38.08;16.38;;;7.60;77.90;;;;;;5037111;28;20140;-82
2022/01/30 11:36:34;;;;;;;14.65;3.10;;;7.60;77.60;;;;;;5043866;28;20343;-82
2022/01/30 11:39:00;;;;;;;27.60;10.48;;;7.60;77.40;;;;;;5029931;28;20045;-82
2022/01/30 11:41:26;;;;;;;21.05;8.10;;;7.60;77.10;;;;;;5036865;28;20120;-82
2022/01/30 11:44:19;;;;;;;20.13;8.20;;;7.60;77.00;;;;;;5024568;28;20124;-86
2022/01/30 11:46:58;;;;;;;15.68;4.82;;;7.60;76.50;;;;;;5041885;28;20873;-80
2022/01/30 11:49:39;;;;;;;13.43;5.18;;;7.60;76.60;;;;;;5041442;28;20464;-80
2022/01/30 11:52:06;;;;;;;12.18;4.22;;;7.50;76.40;;;;;;5042488;28;20568;-80
2022/01/30 11:54:36;;;;;;;13.35;3.10;;;7.50;77.00;;;;;;5020694;28;20055;-82
2022/01/30 11:57:27;;;;;;;13.55;2.92;;;7.50;76.80;;;;;;5029430;28;20526;-83
2022/01/30 11:59:53;;;;;;;14.75;4.50;;;7.50;76.80;;;;;;5047028;28;20394;-84
2022/01/30 12:02:25;;;;;;;14.32;4.45;;;7.50;76.80;;;;;;5013044;28;20079;-81
2022/01/30 12:05:08;;;;;;;11.00;3.53;;;7.50;76.80;;;;;;5004974;28;20403;-82
2022/01/30 12:07:35;;;;;;;14.73;3.45;;;7.50;76.20;;;;;;5033996;28;20041;-81
2022/01/30 12:10:15;;;;;;;11.35;3.80;;;7.50;76.70;;;;;;5047203;28;20041;-81
2022/01/30 12:13:03;;;;;;;10.88;3.45;;;7.50;76.40;;;;;;5003338;28;20403;-81
2022/01/30 12:15:42;;;;;;;14.15;3.15;;;7.60;76.60;;;;;;5017566;28;20064;-81
2022/01/30 12:18:08;;;;;;;11.93;3.88;;;7.60;76.20;;;;;;5033239;28;20041;-81
2022/01/30 12:20:56;;;;;;;11.05;2.83;;;7.60;76.70;;;;;;5046755;28;20048;-81
2022/01/30 12:23:35;;;;;;;14.10;2.92;;;7.60;76.00;;;;;;5036781;28;20091;-81
2022/01/30 12:26:14;;;;;;;12.57;3.22;;;7.70;76.00;;;;;;5045620;28;20029;-81
2022/01/30 12:28:48;;;;;;;11.55;2.72;;;7.80;76.40;;;;;;5015136;28;20033;-81
2022/01/30 12:31:24;;;;;;;15.05;2.80;;;7.80;76.30;;;;;;5033624;28;20036;-81
2022/01/30 12:34:04;;;;;;;9.57;3.95;;;7.90;75.70;;;;;;5056199;28;20748;-81
2022/01/30 12:36:33;;;;;;;18.00;2.55;;;8.00;76.00;;;;;;5043307;28;20032;-81
2022/01/30 12:39:01;;;;;;;11.38;2.30;;;8.10;76.00;;;;;;5024142;28;20041;-81
2022/01/30 12:41:27;;;;;;;13.45;2.67;;;8.10;75.90;;;;;;5043281;28;20036;-81
2022/01/30 12:43:55;;;;;;;9.63;2.40;;;8.10;75.60;;;;;;5038541;28;20062;-81
2022/01/30 12:46:22;;;;;;;9.65;2.60;;;8.10;75.50;;;;;;5017016;28;20040;-81
2022/01/30 12:49:03;;;;;;;11.93;2.30;;;8.10;75.30;;;;;;5057838;28;20069;-81
2022/01/30 12:51:28;;;;;;;12.80;3.03;;;8.10;75.00;;;;;;5044766;28;20028;-81
2022/01/30 12:53:55;;;;;;;11.10;2.30;;;8.10;75.50;;;;;;5045303;28;20029;-81
2022/01/30 12:56:24;;;;;;;10.00;2.47;;;8.00;75.40;;;;;;5011118;28;20521;-81
2022/01/30 12:58:51;;;;;;;8.65;2.40;;;8.10;75.60;;;;;;5032898;28;20572;-81
2022/01/30 13:01:16;;;;;;;11.88;2.50;;;8.10;75.60;;;;;;5037182;28;20032;-81
2022/01/30 13:03:42;;;;;;;15.00;2.92;;;8.20;75.40;;;;;;5023808;28;20029;-81
2022/01/30 13:06:08;;;;;;;12.45;4.15;;;8.30;75.10;;;;;;5043402;28;20044;-81
2022/01/30 13:08:47;;;;;;;15.52;2.45;;;8.30;75.00;;;;;;5025672;28;20032;-81
2022/01/30 13:11:25;;;;;;;8.52;2.80;;;8.30;74.10;;;;;;5030671;28;20037;-81
2022/01/30 13:13:58;;;;;;;15.18;2.83;;;8.30;74.40;;;;;;5010847;28;20045;-80
2022/01/30 13:16:25;;;;;;;10.88;2.50;;;8.30;74.70;;;;;;5038251;28;21105;-81
2022/01/30 13:18:50;;;;;;;15.43;4.25;;;8.30;74.70;;;;;;5047500;28;20040;-81
2022/01/30 13:21:22;;;;;;;16.70;2.92;;;8.30;74.40;;;;;;5042881;28;20045;-81
2022/01/30 13:23:47;;;;;;;13.60;3.30;;;8.30;73.80;;;;;;5006279;28;20036;-81
2022/01/30 13:26:27;;;;;;;15.30;4.57;;;8.30;74.00;;;;;;5035169;28;20024;-81
2022/01/30 13:28:53;;;;;;;11.52;2.75;;;8.30;73.50;;;;;;5017948;28;20465;-81
2022/01/30 13:31:18;;;;;;;19.23;3.72;;;8.30;73.90;;;;;;5029540;28;20029;-81
2022/01/30 13:33:44;;;;;;;14.63;5.03;;;8.30;73.90;;;;;;5051911;28;20117;-81
2022/01/30 13:36:22;;;;;;;20.65;5.53;;;8.30;73.70;;;;;;5043054;28;20116;-81
2022/01/30 13:38:48;;;;;;;33.28;11.43;;;8.30;73.40;;;;;;5028062;28;20044;-81
2022/01/30 13:41:25;;;;;;;17.73;4.85;;;8.30;73.70;;;;;;5019647;28;20505;-81
2022/01/30 13:43:55;;;;;;;16.48;4.45;;;8.20;73.20;;;;;;5037512;28;20029;-81
2022/01/30 13:49:05;;;;;;;34.70;11.70;;;8.20;73.50;;;;;;5034627;28;20071;-81